createdAt,value
2023-02-03T00:00:56.419Z,5.38
2023-02-03T00:04:21.691Z,5.4
2023-02-03T00:07:46.945Z,5.39
2023-02-03T00:11:12.205Z,5.39
2023-02-03T00:14:37.405Z,5.38
2023-02-03T00:18:02.645Z,5.41
2023-02-03T00:21:28.449Z,5.47
2023-02-03T00:24:53.711Z,5.49
2023-02-03T00:28:19.071Z,5.47
2023-02-03T00:31:44.384Z,5.43
2023-02-03T00:35:09.496Z,5.4
2023-02-03T00:38:34.735Z,5.43
2023-02-03T00:42:00.002Z,5.43
2023-02-03T00:45:25.243Z,5.5
2023-02-03T00:48:50.465Z,5.46
2023-02-03T00:52:15.722Z,5.45
2023-02-03T00:55:40.977Z,5.5
2023-02-03T00:59:06.243Z,5.52
2023-02-03T01:02:31.516Z,5.53
2023-02-03T01:05:56.705Z,5.55
2023-02-03T01:09:21.939Z,5.6
2023-02-03T01:12:47.181Z,5.63
2023-02-03T01:16:12.442Z,5.69
2023-02-03T01:19:37.737Z,5.72
2023-02-03T01:23:03.000Z,5.71
2023-02-03T01:26:28.225Z,5.67
2023-02-03T01:29:53.459Z,5.66
2023-02-03T01:33:18.713Z,5.63
2023-02-03T01:36:43.940Z,5.64
2023-02-03T01:40:09.191Z,5.65
2023-02-03T01:43:34.437Z,5.65
2023-02-03T01:46:59.686Z,5.6
2023-02-03T01:50:25.154Z,5.59
2023-02-03T01:53:50.172Z,5.63
2023-02-03T01:57:15.409Z,5.63
2023-02-03T02:00:41.625Z,5.6
2023-02-03T02:04:06.894Z,5.61
2023-02-03T02:07:32.133Z,5.59
2023-02-03T02:10:57.409Z,5.61
2023-02-03T02:14:22.649Z,5.65
2023-02-03T02:17:47.907Z,5.68
2023-02-03T02:21:13.143Z,5.68
2023-02-03T02:24:38.398Z,5.72
2023-02-03T02:28:03.712Z,5.72
2023-02-03T02:31:29.053Z,5.7
2023-02-03T02:34:54.147Z,5.68
2023-02-03T02:38:19.433Z,5.68
2023-02-03T02:41:44.684Z,5.76
2023-02-03T02:45:09.947Z,5.81
2023-02-03T02:48:35.202Z,5.87
2023-02-03T02:52:00.455Z,5.9
2023-02-03T02:55:25.692Z,5.92
2023-02-03T02:58:50.951Z,5.91
2023-02-03T03:02:16.238Z,5.91
2023-02-03T03:05:41.497Z,5.91
2023-02-03T03:09:06.757Z,5.93
2023-02-03T03:12:31.984Z,5.92
2023-02-03T03:15:57.281Z,5.97
2023-02-03T03:19:22.546Z,6.02
2023-02-03T03:22:47.753Z,6.07
2023-02-03T03:26:12.997Z,6.07
2023-02-03T03:29:38.245Z,6.07
2023-02-03T03:33:03.481Z,6.09
2023-02-03T03:36:28.740Z,6.13
2023-02-03T03:39:53.974Z,6.13
2023-02-03T03:43:19.221Z,6.14
2023-02-03T03:46:44.522Z,6.14
2023-02-03T03:50:09.694Z,6.14
2023-02-03T03:53:34.936Z,6.14
2023-02-03T03:57:00.155Z,6.15
2023-02-03T04:00:25.713Z,6.2
2023-02-03T04:03:50.670Z,6.23
2023-02-03T04:07:15.883Z,6.24
2023-02-03T04:10:41.165Z,6.23
2023-02-03T04:14:06.392Z,6.21
2023-02-03T04:17:31.631Z,6.2
2023-02-03T04:20:56.928Z,6.19
2023-02-03T04:24:22.177Z,6.2
2023-02-03T04:27:47.575Z,6.19
2023-02-03T04:31:14.345Z,6.15
2023-02-03T04:34:39.476Z,6.19
2023-02-03T04:38:04.713Z,6.2
2023-02-03T04:41:29.980Z,6.19
2023-02-03T04:44:55.251Z,6.18
2023-02-03T04:48:20.449Z,6.17
2023-02-03T04:51:45.679Z,6.2
2023-02-03T04:55:10.928Z,6.24
2023-02-03T04:58:36.146Z,6.28
2023-02-03T05:02:01.457Z,6.29
2023-02-03T05:05:26.605Z,6.29
2023-02-03T05:08:51.931Z,6.32
2023-02-03T05:12:17.267Z,6.33
2023-02-03T05:15:42.558Z,6.33
2023-02-03T05:19:07.850Z,6.34
2023-02-03T05:22:33.036Z,6.35
2023-02-03T05:25:58.244Z,6.35
2023-02-03T05:29:23.547Z,6.35
2023-02-03T05:32:48.770Z,6.34
2023-02-03T05:36:14.027Z,6.35
2023-02-03T05:39:39.167Z,6.37
2023-02-03T05:43:04.383Z,6.39
2023-02-03T05:46:29.578Z,6.42
2023-02-03T05:49:54.769Z,6.48
2023-02-03T05:53:19.950Z,6.51
2023-02-03T05:56:45.119Z,6.53
2023-02-03T06:00:10.314Z,6.52
2023-02-03T06:03:35.584Z,6.5
2023-02-03T06:07:00.653Z,6.51
2023-02-03T06:10:26.284Z,6.53
2023-02-03T06:13:51.026Z,6.54
2023-02-03T06:17:16.241Z,6.54
2023-02-03T06:20:41.406Z,6.59
2023-02-03T06:24:06.570Z,6.8
2023-02-03T06:27:31.759Z,7.01
2023-02-03T06:30:57.042Z,7.16
2023-02-03T06:34:22.108Z,7.19
2023-02-03T06:37:47.267Z,7.14
2023-02-03T06:41:12.446Z,7.06
2023-02-03T06:44:37.650Z,6.97
2023-02-03T06:48:02.816Z,6.88
2023-02-03T06:51:28.009Z,6.82
2023-02-03T06:54:53.204Z,6.76
2023-02-03T06:58:18.360Z,6.71
2023-02-03T07:01:43.632Z,6.72
2023-02-03T07:05:08.746Z,6.76
2023-02-03T07:08:33.925Z,6.78
2023-02-03T07:11:59.115Z,6.77
2023-02-03T07:15:24.283Z,6.78
2023-02-03T07:18:49.494Z,6.79
2023-02-03T07:22:14.617Z,6.79
2023-02-03T07:25:39.782Z,6.82
2023-02-03T07:29:04.990Z,6.86
2023-02-03T07:32:31.843Z,6.87
2023-02-03T07:35:55.358Z,6.85
2023-02-03T07:39:20.524Z,6.83
2023-02-03T07:42:45.707Z,6.84
2023-02-03T07:46:10.912Z,6.88
2023-02-03T07:49:36.027Z,6.92
2023-02-03T07:53:01.218Z,6.96
2023-02-03T07:56:26.366Z,6.97
2023-02-03T07:59:51.508Z,6.98
2023-02-03T08:03:16.673Z,6.99
2023-02-03T08:06:41.866Z,7.02
2023-02-03T08:10:07.024Z,7.02
2023-02-03T08:13:32.160Z,7.05
2023-02-03T08:16:57.343Z,7.05
2023-02-03T08:20:22.519Z,7.07
2023-02-03T08:23:47.702Z,7.09
2023-02-03T08:27:12.957Z,7.11
2023-02-03T08:30:38.106Z,7.12
2023-02-03T08:34:03.293Z,7.09
2023-02-03T08:37:28.499Z,7.11
2023-02-03T08:40:53.734Z,7.09
2023-02-03T08:44:18.959Z,7.06
2023-02-03T08:47:44.191Z,7
2023-02-03T08:51:09.398Z,7
2023-02-03T08:54:34.584Z,7
2023-02-03T08:57:59.770Z,7.01
2023-02-03T09:01:25.043Z,7.06
2023-02-03T09:04:50.213Z,7.14
2023-02-03T09:08:15.390Z,7.23
2023-02-03T09:11:40.594Z,7.24
2023-02-03T09:15:05.753Z,7.23
2023-02-03T09:18:30.974Z,7.2
2023-02-03T09:21:56.160Z,7.22
2023-02-03T09:25:21.335Z,7.27
2023-02-03T09:28:46.562Z,7.26
2023-02-03T09:32:13.679Z,7.2
2023-02-03T09:35:36.975Z,7.14
2023-02-03T09:39:02.148Z,7.12
2023-02-03T09:42:27.368Z,7.09
2023-02-03T09:45:52.653Z,7.07
2023-02-03T09:49:17.822Z,7.1
2023-02-03T09:52:43.024Z,7.12
2023-02-03T09:56:08.201Z,7.17
2023-02-03T09:59:33.398Z,7.25
2023-02-03T10:02:58.731Z,7.3
2023-02-03T10:06:23.820Z,7.32
2023-02-03T10:09:49.084Z,7.29
2023-02-03T10:13:14.264Z,7.31
2023-02-03T10:16:39.480Z,7.3
2023-02-03T10:20:04.703Z,7.29
2023-02-03T10:23:29.940Z,7.33
2023-02-03T10:26:55.271Z,7.34
2023-02-03T10:30:20.391Z,7.33
2023-02-03T10:33:45.587Z,7.35
2023-02-03T10:37:10.789Z,7.42
2023-02-03T10:40:36.002Z,7.44
2023-02-03T10:44:01.235Z,7.46
2023-02-03T10:47:26.428Z,7.45
2023-02-03T10:50:52.645Z,7.47
2023-02-03T10:54:17.841Z,7.51
2023-02-03T10:57:43.082Z,7.46
2023-02-03T11:01:08.422Z,7.44
2023-02-03T11:04:33.473Z,7.39
2023-02-03T11:07:58.634Z,7.37
2023-02-03T11:11:24.820Z,7.33
2023-02-03T11:14:49.020Z,7.31
2023-02-03T11:18:14.232Z,7.35
2023-02-03T11:21:39.422Z,7.42
2023-02-03T11:25:04.583Z,7.45
2023-02-03T11:28:29.804Z,7.47
2023-02-03T11:31:55.147Z,7.43
2023-02-03T11:35:21.732Z,7.43
2023-02-03T11:38:45.384Z,7.51
2023-02-03T11:42:10.587Z,7.55
2023-02-03T11:45:35.889Z,7.58
2023-02-03T11:49:01.078Z,7.59
2023-02-03T11:52:26.282Z,7.63
2023-02-03T11:55:51.446Z,7.64
2023-02-03T11:59:16.664Z,7.69
2023-02-03T12:02:41.923Z,7.79
2023-02-03T12:06:07.050Z,7.89
2023-02-03T12:09:32.279Z,7.96
2023-02-03T12:12:57.468Z,8.07
2023-02-03T12:16:22.699Z,8.07
2023-02-03T12:19:47.827Z,7.98
2023-02-03T12:23:13.044Z,7.9
2023-02-03T12:26:38.245Z,7.82
2023-02-03T12:30:03.431Z,7.74
2023-02-03T12:33:28.630Z,7.67
2023-02-03T12:36:53.809Z,7.65
2023-02-03T12:40:18.995Z,7.63
2023-02-03T12:43:44.242Z,7.61
2023-02-03T12:47:09.436Z,7.58
2023-02-03T12:50:34.638Z,7.56
2023-02-03T12:53:59.866Z,7.56
2023-02-03T12:57:25.059Z,7.56
2023-02-03T13:00:50.362Z,7.57
2023-02-03T13:04:15.485Z,7.58
2023-02-03T13:07:40.705Z,7.57
2023-02-03T13:11:05.897Z,7.56
2023-02-03T13:14:31.125Z,7.59
2023-02-03T13:17:56.360Z,7.6
2023-02-03T13:21:21.509Z,7.62
2023-02-03T13:24:46.767Z,7.6
2023-02-03T13:28:12.107Z,7.61
2023-02-03T13:31:37.293Z,7.59
2023-02-03T13:35:02.480Z,7.57
2023-02-03T13:38:27.641Z,7.55
2023-02-03T13:41:52.913Z,7.59
2023-02-03T13:45:18.159Z,7.65
2023-02-03T13:48:43.382Z,7.66
2023-02-03T13:52:08.655Z,7.7
2023-02-03T13:55:33.850Z,7.76
2023-02-03T13:58:59.064Z,7.78
2023-02-03T14:02:24.312Z,7.81
2023-02-03T14:05:49.510Z,7.84
2023-02-03T14:09:14.800Z,7.85
2023-02-03T14:12:39.922Z,7.85
2023-02-03T14:16:05.112Z,7.86
2023-02-03T14:19:30.361Z,7.85
2023-02-03T14:22:55.569Z,7.84
2023-02-03T14:26:20.835Z,7.86
2023-02-03T14:29:46.114Z,7.86
2023-02-03T15:03:30.855Z,5.71
2023-02-03T15:06:56.061Z,6.66
2023-02-03T15:10:21.231Z,6.92
2023-02-03T15:13:46.442Z,7.1
2023-02-03T15:17:11.685Z,7.22
2023-02-03T15:20:36.886Z,7.28
2023-02-03T15:24:02.067Z,7.32
2023-02-03T15:27:27.245Z,7.31
2023-02-03T15:30:52.570Z,7.29
2023-02-03T15:34:17.705Z,7.25
2023-02-03T15:37:42.922Z,7.23
2023-02-03T15:41:08.101Z,7.21
2023-02-03T15:44:33.260Z,7.23
2023-02-03T15:47:58.422Z,7.22
2023-02-03T15:51:23.607Z,7.24
2023-02-03T15:54:48.817Z,7.25
2023-02-03T15:58:13.951Z,7.28
2023-02-03T16:01:39.161Z,7.27
2023-02-03T16:05:04.338Z,7.29
2023-02-03T16:08:29.559Z,7.31
2023-02-03T16:11:55.847Z,7.34
2023-02-03T16:15:20.215Z,7.35
2023-02-03T16:18:45.519Z,7.36
2023-02-03T16:22:10.720Z,7.33
2023-02-03T16:25:35.972Z,7.32
2023-02-03T16:29:01.173Z,7.31
2023-02-03T16:32:26.337Z,7.29
2023-02-03T16:35:51.565Z,7.27
2023-02-03T16:39:16.751Z,7.3
2023-02-03T16:42:41.945Z,7.29
2023-02-03T16:46:07.239Z,7.28
2023-02-03T16:49:32.328Z,7.26
2023-02-03T16:52:57.534Z,7.23
2023-02-03T16:56:22.716Z,7.24
2023-02-03T16:59:47.879Z,7.21
2023-02-03T17:03:13.144Z,7.19
2023-02-03T17:06:38.367Z,7.17
2023-02-03T17:10:03.643Z,7.16
2023-02-03T17:13:28.904Z,7.15
2023-02-03T17:16:54.127Z,7.14
2023-02-03T17:20:19.901Z,7.12
2023-02-03T17:23:45.117Z,7.08
2023-02-03T17:27:10.369Z,7.03
2023-02-03T17:30:35.722Z,6.99
2023-02-03T17:34:00.937Z,6.93
2023-02-03T17:37:26.207Z,6.89
2023-02-03T17:54:52.416Z,6.86
2023-02-03T17:58:17.644Z,6.86
2023-02-03T18:01:42.926Z,6.84
2023-02-03T18:05:08.155Z,6.81
2023-02-03T18:08:33.388Z,6.78
2023-02-03T18:11:58.749Z,6.72
2023-02-03T18:15:23.969Z,6.68
2023-02-03T18:18:49.255Z,6.67
2023-02-03T18:22:14.511Z,6.66
2023-02-03T18:25:39.711Z,6.66
2023-02-03T18:29:04.962Z,6.63
2023-02-03T18:32:30.144Z,6.63
2023-02-03T18:35:55.370Z,6.61
2023-02-03T18:39:20.583Z,6.6
2023-02-03T18:42:45.815Z,6.61
2023-02-03T18:46:11.129Z,6.6
2023-02-03T18:49:36.321Z,6.57
2023-02-03T18:53:01.577Z,6.57
2023-02-03T18:56:26.809Z,6.57
2023-02-03T18:59:52.062Z,6.57
2023-02-03T19:03:17.315Z,6.56
2023-02-03T19:06:42.559Z,6.55
2023-02-03T19:10:07.752Z,6.56
2023-02-03T19:13:33.049Z,6.58
2023-02-03T19:16:58.321Z,6.57
2023-02-03T19:20:23.598Z,6.56
2023-02-03T19:23:48.840Z,6.56
2023-02-03T19:27:14.090Z,6.55
2023-02-03T19:30:39.361Z,6.55
2023-02-03T19:34:04.554Z,6.54
2023-02-03T19:37:29.827Z,6.52
2023-02-03T19:40:55.069Z,6.5
2023-02-03T19:44:20.272Z,6.48
2023-02-03T19:47:45.528Z,6.5
2023-02-03T19:51:10.783Z,6.5
2023-02-03T19:54:36.049Z,6.52
2023-02-03T19:58:01.304Z,6.52
2023-02-03T20:01:26.705Z,6.52
2023-02-03T20:04:51.923Z,6.49
2023-02-03T20:08:17.087Z,6.47
2023-02-03T20:11:42.346Z,6.45
2023-02-03T20:15:07.586Z,6.43
2023-02-03T20:18:32.845Z,6.42
2023-02-03T20:21:58.066Z,6.4
2023-02-03T20:25:23.304Z,6.4
2023-02-03T20:28:48.555Z,6.38
2023-02-03T20:32:13.768Z,6.37
2023-02-03T20:35:39.021Z,6.38
2023-02-03T20:39:04.339Z,6.38
2023-02-03T20:42:29.589Z,6.38
2023-02-03T20:45:54.854Z,6.38
2023-02-03T20:49:19.996Z,6.41
2023-02-03T20:52:45.197Z,6.42
2023-02-03T20:56:10.426Z,6.44
2023-02-03T20:59:35.624Z,6.45
2023-02-03T21:03:00.825Z,6.49
2023-02-03T21:06:26.005Z,6.5
2023-02-03T21:09:51.225Z,6.47
2023-02-03T21:13:16.414Z,6.44
2023-02-03T21:16:41.648Z,6.42
2023-02-03T21:20:06.872Z,6.41
2023-02-03T21:23:32.049Z,6.37
2023-02-03T21:26:57.256Z,6.31
2023-02-03T21:30:22.465Z,6.28
2023-02-03T21:33:47.688Z,6.23
2023-02-03T21:37:12.870Z,6.19
2023-02-03T21:40:38.015Z,6.2
2023-02-03T21:44:03.231Z,6.21
2023-02-03T21:47:28.437Z,6.22
2023-02-03T21:50:53.656Z,6.21
2023-02-03T21:54:18.865Z,6.21
2023-02-03T21:57:44.019Z,6.18
2023-02-03T22:01:09.303Z,6.19
2023-02-03T22:04:34.430Z,6.21
2023-02-03T22:07:59.632Z,6.22
2023-02-03T22:11:24.899Z,6.24
2023-02-03T22:14:50.102Z,6.25
2023-02-03T22:18:15.299Z,6.29
2023-02-03T22:21:40.564Z,6.28
2023-02-03T22:25:05.791Z,6.28
2023-02-03T22:28:30.968Z,6.27
2023-02-03T22:31:56.281Z,6.27
2023-02-03T22:35:21.293Z,6.27
2023-02-03T22:38:46.453Z,6.29
2023-02-03T22:42:11.662Z,6.3
2023-02-03T22:45:36.892Z,6.29
2023-02-03T22:49:02.037Z,6.3
2023-02-03T22:52:27.213Z,6.3
2023-02-03T22:55:52.436Z,6.28
2023-02-03T22:59:17.688Z,6.23
2023-02-03T23:02:42.899Z,6.14
2023-02-03T23:06:08.103Z,6.05
2023-02-03T23:09:33.251Z,5.97
2023-02-03T23:12:58.455Z,5.93
2023-02-03T23:16:23.637Z,5.92
2023-02-03T23:19:48.862Z,5.91
2023-02-03T23:23:14.057Z,5.92
2023-02-03T23:26:39.262Z,5.93
2023-02-03T23:30:04.428Z,5.94
2023-02-03T23:33:29.652Z,5.98
2023-02-03T23:36:54.873Z,6.04
2023-02-03T23:40:20.027Z,6.01
2023-02-03T23:43:45.206Z,6
2023-02-03T23:47:10.392Z,6
2023-02-03T23:50:35.565Z,6
2023-02-03T23:54:00.765Z,6
2023-02-03T23:57:25.934Z,5.98
